• Join FlightAware (Why Join?)
  • Login
  • US Flag 
08:14PM EDT


 

Airport Tracker/Info


-or-


 

Live Flight TrackerFlight Track Log ✈ SWA2353 ✈ 30-Apr-2013 ✈ KMDW - KSTL

Flight Track Log - Related Links

Times and Time Zones

All times are in EDT time to prevent confusion due to time zone crossing. See the SWA2353 flight status page for this flight to view local times or setup timezone preferences in your user account.

Time Position Orientation Groundspeed Altitude Reporting Facility
EDT Latitude Longitude Course Direction KTS MPH feet Rate Location/Type
09:36PM 41.7667 -87.7833 196° South 136 157 2,600  Level Chicago TRACON
09:39PM 41.6458 -87.8672 207° Southwest 248 285 9,400 2,820 Climbing Chicago Center
09:40PM 41.5706 -87.9033 200° South 301 346 12,400 3,420 Climbing Chicago Center
09:41PM 41.4781 -87.9278 191° South 333 383 16,500 3,960 Climbing Chicago Center
09:42PM 41.3078 -88.0513 196° South  Level FlightAware Approximate
09:42PM 41.3775 -87.9547 191° South 353 406 20,600  Level Chicago Center
09:43PM 41.2728 -87.9836 192° South 376 433 24,000 2,580 Climbing Chicago Center
09:44PM 41.1769 -88.0347 202° Southwest 369 425 26,000 960 Climbing Chicago Center
09:45PM 41.0842 -88.0872 203° Southwest 364 419 26,000  Level Chicago Center
09:46PM 40.9692 -88.1503 202° Southwest 372 428 26,000  Level Chicago Center
09:47PM 40.8650 -88.2089 203° Southwest 406 467 26,000  Level Chicago Center
09:48PM 40.7608 -88.2664 203° Southwest 409 471 26,000  Level Chicago Center
09:49PM 40.6556 -88.3239 203° Southwest 411 473 26,000  Level Chicago Center
09:50PM 40.5508 -88.3828 203° Southwest 410 472 26,000  Level Chicago Center
09:51PM 40.4456 -88.4392 202° Southwest 412 474 26,000  Level Chicago Center
09:52PM 40.3392 -88.4969 202° Southwest 415 478 26,000  Level Chicago Center
09:53PM 40.2139 -88.5647 202° Southwest 413 475 26,000  Level Chicago Center
09:54PM 40.1028 -88.6231 202° Southwest 419 482 26,000  Level Kansas City Center
09:55PM 39.9925 -88.6847 203° Southwest 427 491 26,000  Level Kansas City Center
09:56PM 39.8800 -88.7444 202° Southwest 432 497 26,000  Level Kansas City Center
09:57PM 39.7689 -88.8033 202° Southwest 431 496 26,000  Level Kansas City Center
09:58PM 39.6619 -88.8769 208° Southwest 434 499 26,000  Level Kansas City Center
09:59PM 39.5694 -88.9764 220° Southwest 433 498 26,000  Level Kansas City Center
10:00PM 39.4778 -89.0758 220° Southwest 431 496 26,000 -1,320 Level Kansas City Center
10:01PM 39.3822 -89.1786 220° Southwest 425 489 23,300 -2,700 Descending Kansas City Center
10:02PM 39.2969 -89.2714 220° Southwest 408 470 20,500 -2,880 Descending Kansas City Center
10:03PM 39.1981 -89.3767 220° Southwest 390 449 17,400 -2,760 Descending Kansas City Center
10:04PM 39.1228 -89.4603 221° Southwest 367 422 14,900 -2,520 Descending Kansas City Center
10:05PM 39.0422 -89.5447 219° Southwest 349 402 12,300 -1,920 Descending Kansas City Center
10:06PM 38.9828 -89.6347 230° Southwest 335 386 11,000 -660 Descending Kansas City Center
10:07PM 38.9500 -89.7422 249° West 326 375 11,000  Level Kansas City Center
10:08PM 38.9175 -89.8428 247° West 326 375 11,000  Level Kansas City Center
10:09PM 38.8839 -89.9489 248° West 322 371 11,000 -840 Level Kansas City Center
10:12PM 38.8308 -90.0771 252° West  Level FlightAware Approximate
10:12PM 38.8000 -90.2333 252° West 283 326 7,900  Level Gateway (St. Louis) TRACON
10:13PM 38.8139 -90.2586 305° West 287 330 7,600 -840 Descending Kansas City Center
10:14PM 38.8508 -90.3347 302° West 267 307 6,800 -660 Descending Kansas City Center
10:14PM 38.8667 -90.3833 293° West 224 258 6,600 -720 Descending Gateway (St. Louis) TRACON
10:15PM 38.8711 -90.4042 285° West 232 267 6,100 -1,440 Descending Kansas City Center
10:16PM 38.8469 -90.4564 239° Southwest 187 215 4,500 -1,380 Descending Kansas City Center
10:18PM 38.7947 -90.4597 183° South 143 165 2,000 -1,020 Descending Kansas City Center
10:19PM 38.7764 -90.4233 123° Southeast 129 148 1,400 -660 Descending Kansas City Center
10:20PM 38.7536 -90.3781 123° Southeast 125 144 700 -720 Descending Kansas City Center